Time;durP1;ratioP1;P1;durP2;ratioP2;P2;SDS_P1;SDS_P2;PMS_P1;PMS_P2;Temp;Humidity;BMP_temperature;BMP_pressure;BME280_temperature;BME280_humidity;BME280_pressure;Samples;Min_cycle;Max_cycle;Signal;HPM_P1;HPM_P2
2023/06/10 00:02:08;;;;;;;4.30;2.10;;;;;;;12.85;56.91;99883.75;5025071;28;20049;-35
2023/06/10 00:04:36;;;;;;;5.07;1.70;;;;;;;12.63;57.27;99847.25;5011261;28;20797;-43
2023/06/10 00:07:08;;;;;;;2.97;1.90;;;;;;;12.79;57.32;99881.41;5025045;28;20047;-34
2023/06/10 00:09:36;;;;;;;1.95;1.40;;;;;;;12.76;57.34;99881.53;4977285;28;20473;-34
2023/06/10 00:12:04;;;;;;;1.80;1.40;;;;;;;12.70;57.14;99873.03;5027416;28;20061;-35
2023/06/10 00:14:30;;;;;;;2.17;1.30;;;;;;;12.70;57.23;99883.47;5026103;28;20461;-34
2023/06/10 00:16:57;;;;;;;2.90;1.67;;;;;;;12.66;57.89;99879.28;5023527;28;20038;-34
2023/06/10 00:19:25;;;;;;;2.25;1.88;;;;;;;12.64;58.26;99878.50;5028339;28;20057;-34
2023/06/10 00:21:52;;;;;;;5.22;1.90;;;;;;;12.63;57.58;99886.38;5028866;28;20136;-35
2023/06/10 00:24:18;;;;;;;4.53;1.70;;;;;;;12.45;58.19;99872.31;5011857;28;20125;-34
2023/06/10 00:26:44;;;;;;;7.03;1.88;;;;;;;12.54;58.62;99892.81;5027060;28;20127;-34
2023/06/10 00:29:10;;;;;;;3.95;2.20;;;;;;;12.51;58.79;99899.91;5026983;28;20045;-35
2023/06/10 00:31:37;;;;;;;4.70;1.95;;;;;;;12.49;58.64;99902.56;5029251;28;20041;-35
2023/06/10 00:34:07;;;;;;;;;;;;;;;12.47;58.85;99899.16;5010362;28;20152;-35
2023/06/10 00:36:33;;;;;;;2.88;2.13;;;;;;;12.44;58.62;99901.06;5027258;28;19920;-34
2023/06/10 00:38:59;;;;;;;5.25;2.00;;;;;;;12.47;59.63;99903.53;5027505;28;20048;-34
2023/06/10 00:41:28;;;;;;;3.55;2.13;;;;;;;12.45;59.17;99906.22;5026894;28;20525;-35
2023/06/10 00:43:53;;;;;;;3.50;2.00;;;;;;;12.44;59.84;99912.34;5024921;28;20184;-34
2023/06/10 00:46:20;;;;;;;4.13;2.05;;;;;;;12.42;60.01;99921.09;5027754;28;20131;-35
2023/06/10 00:48:46;;;;;;;4.28;2.40;;;;;;;12.25;59.94;99898.28;5042916;28;20099;-36
2023/06/10 00:51:13;;;;;;;7.25;2.40;;;;;;;12.43;60.30;99928.88;5011059;28;20505;-34
2023/06/10 00:53:39;;;;;;;6.07;2.45;;;;;;;12.47;60.69;99930.47;5025253;28;20045;-34
2023/06/10 00:56:06;;;;;;;6.32;2.95;;;;;;;12.48;60.52;99920.88;5028833;28;20052;-35
2023/06/10 00:58:32;;;;;;;4.93;2.70;;;;;;;12.29;60.72;99903.34;5022015;28;20132;-35
2023/06/10 01:00:58;;;;;;;5.40;2.50;;;;;;;12.47;60.59;99932.22;5010199;28;20168;-35
2023/06/10 01:03:27;;;;;;;5.18;2.70;;;;;;;12.39;61.18;99918.63;5020290;28;20087;-35
2023/06/10 01:06:14;;;;;;;8.38;3.47;;;;;;;12.48;61.12;99931.31;5015978;28;20102;-35
2023/06/10 01:08:46;;;;;;;6.88;3.05;;;;;;;12.47;61.35;99940.03;5025747;28;20054;-35
2023/06/10 01:11:26;;;;;;;3.92;2.60;;;;;;;12.39;61.39;99940.34;5028097;28;20099;-34
2023/06/10 01:13:55;;;;;;;4.35;2.13;;;;;;;12.42;61.10;99942.81;5025053;28;20038;-35
2023/06/10 01:16:22;;;;;;;4.38;2.30;;;;;;;12.38;60.84;99954.28;5026510;28;20433;-35
2023/06/10 01:18:48;;;;;;;4.82;2.53;;;;;;;12.28;60.78;99935.53;5025712;28;20049;-35
2023/06/10 01:21:21;;;;;;;4.07;2.55;;;;;;;12.31;61.20;99950.19;5027258;28;20060;-35
2023/06/10 01:23:47;;;;;;;3.88;2.10;;;;;;;12.27;61.20;99959.88;5025897;28;20095;-35
2023/06/10 01:26:14;;;;;;;4.53;2.17;;;;;;;12.04;60.92;99927.72;5026847;28;20047;-34
2023/06/10 01:28:48;;;;;;;5.63;2.55;;;;;;;12.24;61.37;99960.03;5026213;28;20045;-36
2023/06/10 01:31:36;;;;;;;2.83;2.08;;;;;;;12.28;61.31;99958.13;5023651;28;20514;-35
2023/06/10 01:34:03;;;;;;;3.45;2.30;;;;;;;12.31;61.51;99969.28;5010024;28;20052;-34
2023/06/10 01:36:29;;;;;;;5.70;2.28;;;;;;;12.31;61.28;99965.84;5010255;28;20460;-34
2023/06/10 01:38:55;;;;;;;5.05;2.40;;;;;;;12.34;61.29;99972.69;5027059;28;20041;-34
2023/06/10 01:41:21;;;;;;;4.13;2.42;;;;;;;12.35;61.31;99977.88;5041553;28;20053;-35
2023/06/10 01:43:48;;;;;;;5.78;2.30;;;;;;;12.38;61.62;99974.28;5007092;28;20049;-34
2023/06/10 01:46:15;;;;;;;6.88;2.28;;;;;;;12.39;61.21;99976.00;5009555;28;20121;-35
2023/06/10 01:48:44;;;;;;;5.80;2.10;;;;;;;12.40;61.72;99975.94;5026289;28;20120;-35
2023/06/10 01:51:10;;;;;;;4.55;2.95;;;;;;;12.40;61.40;99985.53;5009331;28;20049;-35
2023/06/10 01:53:36;;;;;;;3.65;2.40;;;;;;;12.37;61.39;99980.41;4961791;28;20045;-36
2023/06/10 01:56:01;;;;;;;4.05;2.30;;;;;;;12.34;61.38;99984.00;5023037;28;20128;-35
2023/06/10 01:58:28;;;;;;;4.68;1.80;;;;;;;12.28;61.31;99985.06;5013203;28;20072;-35
2023/06/10 02:00:55;;;;;;;4.00;2.33;;;;;;;12.29;62.02;99994.59;5018988;28;20041;-35
2023/06/10 02:03:21;;;;;;;4.20;2.03;;;;;;;12.25;61.53;99987.75;5030593;28;20037;-34
2023/06/10 02:05:47;;;;;;;2.97;1.80;;;;;;;12.27;62.08;99992.94;5028184;28;20040;-36
2023/06/10 02:08:15;;;;;;;5.20;1.73;;;;;;;12.22;62.21;99993.09;5010915;28;20570;-35
2023/06/10 02:10:41;;;;;;;6.13;1.90;;;;;;;12.18;62.18;99999.34;5037289;28;20116;-33
2023/06/10 02:13:07;;;;;;;8.05;2.17;;;;;;;12.18;62.67;99996.72;5031036;28;20041;-35
2023/06/10 02:15:33;;;;;;;2.97;1.92;;;;;;;12.16;62.25;100005.50;5029277;28;20048;-35
2023/06/10 02:18:00;;;;;;;3.05;1.90;;;;;;;11.84;62.16;99957.97;5023047;28;20041;-35
2023/06/10 02:20:26;;;;;;;2.78;1.73;;;;;;;11.85;63.01;99964.03;5028947;28;20129;-35
2023/06/10 02:22:52;;;;;;;5.75;2.10;;;;;;;12.08;62.60;100012.75;5031643;28;20041;-35
2023/06/10 02:25:18;;;;;;;6.97;2.65;;;;;;;12.09;62.97;100014.44;4995666;28;20341;-34
2023/06/10 02:27:44;;;;;;;3.70;2.00;;;;;;;12.07;62.71;100011.91;5030576;28;20088;-34
2023/06/10 02:30:10;;;;;;;3.33;2.10;;;;;;;11.91;62.92;99986.41;5029114;28;20425;-35
2023/06/10 02:32:36;;;;;;;5.20;2.20;;;;;;;12.07;62.64;100011.91;5012628;28;20045;-36
2023/06/10 02:35:03;;;;;;;4.38;2.35;;;;;;;12.08;62.18;100020.56;5020972;28;20041;-35
2023/06/10 02:37:30;;;;;;;3.20;1.92;;;;;;;12.08;62.17;100021.41;5010463;28;20048;-34
2023/06/10 02:39:57;;;;;;;2.28;1.70;;;;;;;12.10;62.11;100019.59;4993446;28;20054;-34
2023/06/10 02:42:24;;;;;;;3.65;1.90;;;;;;;12.11;61.34;100018.69;5026183;28;20046;-34
2023/06/10 02:44:51;;;;;;;4.80;1.60;;;;;;;12.05;61.37;100005.88;5029995;28;20040;-34
2023/06/10 02:47:27;;;;;;;4.20;1.70;;;;;;;12.10;61.76;100021.34;5011401;28;20053;-35
2023/06/10 02:49:53;;;;;;;3.58;1.92;;;;;;;12.11;61.40;100031.72;5009454;28;20115;-35
2023/06/10 02:52:20;;;;;;;4.70;1.60;;;;;;;12.09;61.55;100030.09;5023030;28;20531;-35
2023/06/10 02:54:46;;;;;;;3.60;1.60;;;;;;;12.09;61.32;100025.69;5029685;28;20095;-39
2023/06/10 02:57:14;;;;;;;3.63;1.90;;;;;;;12.10;61.05;100030.00;5025430;28;20045;-39
2023/06/10 02:59:40;;;;;;;4.40;1.90;;;;;;;12.10;60.99;100031.75;5029462;28;20041;-35
2023/06/10 03:02:07;;;;;;;4.22;1.50;;;;;;;12.09;60.87;100036.13;4999165;28;20037;-35
2023/06/10 03:04:40;;;;;;;2.40;1.80;;;;;;;12.06;60.74;100036.25;5024509;28;20107;-36
2023/06/10 03:07:12;;;;;;;14.88;2.05;;;;;;;12.11;61.17;100041.28;5015859;28;20050;-35
2023/06/10 03:09:38;;;;;;;3.72;1.60;;;;;;;11.99;60.97;100013.91;5009805;28;20121;-35
2023/06/10 03:12:06;;;;;;;2.72;1.60;;;;;;;12.16;60.80;100036.78;5023641;28;20049;-34
2023/06/10 03:14:38;;;;;;;3.67;2.00;;;;;;;12.18;60.69;100034.97;5027855;28;20425;-34
2023/06/10 03:17:05;;;;;;;3.90;1.67;;;;;;;12.21;60.44;100034.84;5036543;28;20136;-34
2023/06/10 03:19:33;;;;;;;4.95;2.03;;;;;;;12.24;60.22;100032.16;4996613;28;20037;-35
2023/06/10 03:22:15;;;;;;;3.05;1.55;;;;;;;12.10;60.27;100011.78;5035865;28;20072;-34
2023/06/10 03:24:51;;;;;;;2.53;1.70;;;;;;;12.32;60.42;100043.16;5009342;28;20046;-34
2023/06/10 03:27:17;;;;;;;2.30;1.35;;;;;;;12.35;60.13;100039.59;5012318;28;20061;-35
2023/06/10 03:29:46;;;;;;;3.13;1.40;;;;;;;12.13;60.06;100006.47;5028552;28;20486;-35
2023/06/10 03:32:12;;;;;;;3.90;1.83;;;;;;;12.41;60.14;100039.34;5019749;28;20061;-35
2023/06/10 03:34:40;;;;;;;9.75;2.13;;;;;;;12.45;59.68;100046.19;5023230;28;20099;-34
2023/06/10 03:37:06;;;;;;;3.33;1.58;;;;;;;12.50;59.37;100044.25;5028936;28;20045;-35
2023/06/10 03:39:33;;;;;;;4.65;1.40;;;;;;;12.53;59.35;100044.13;5012369;28;20045;-35
2023/06/10 03:41:59;;;;;;;3.00;1.50;;;;;;;12.55;58.79;100045.78;5028339;28;20517;-34
2023/06/10 03:44:27;;;;;;;5.47;1.60;;;;;;;12.38;58.68;100011.66;5029438;28;20064;-35
2023/06/10 03:46:54;;;;;;;3.05;1.55;;;;;;;12.46;58.11;100020.03;5028664;28;20045;-35
2023/06/10 03:49:21;;;;;;;2.70;1.23;;;;;;;12.67;58.58;100053.16;5028816;28;20080;-35
2023/06/10 03:51:48;;;;;;;2.35;1.50;;;;;;;12.71;58.03;100048.69;5028287;28;20441;-35
2023/06/10 03:54:14;;;;;;;2.47;1.60;;;;;;;12.75;58.02;100045.03;5028423;28;20107;-35
2023/06/10 03:56:40;;;;;;;3.30;1.20;;;;;;;12.80;57.62;100050.09;5026250;28;20041;-35
2023/06/10 03:59:06;;;;;;;2.03;1.30;;;;;;;12.84;57.44;100049.91;5016115;28;20100;-35
2023/06/10 04:01:35;;;;;;;8.27;1.60;;;;;;;12.92;58.01;100052.25;5031466;28;20147;-35
2023/06/10 04:04:01;;;;;;;2.45;1.58;;;;;;;12.96;57.54;100056.44;5027554;28;20401;-34
2023/06/10 04:06:28;;;;;;;2.40;1.48;;;;;;;13.00;57.50;100061.47;5029061;28;20043;-34
2023/06/10 04:08:56;;;;;;;4.18;1.30;;;;;;;13.04;57.26;100062.19;5010071;28;20057;-34
2023/06/10 04:11:24;;;;;;;4.70;1.27;;;;;;;13.07;56.79;100059.47;5025485;28;20544;-34
2023/06/10 04:13:50;;;;;;;2.17;0.82;;;;;;;13.11;56.15;100072.38;5039884;28;20532;-34
2023/06/10 04:16:16;;;;;;;1.60;0.80;;;;;;;13.17;55.58;100065.22;5026591;28;20576;-35
2023/06/10 04:18:42;;;;;;;1.88;1.10;;;;;;;13.20;54.87;100067.72;5013297;28;20136;-33
2023/06/10 04:21:10;;;;;;;3.33;1.02;;;;;;;13.07;54.63;100038.59;5038401;28;20099;-35
2023/06/10 04:23:39;;;;;;;2.17;1.47;;;;;;;13.26;54.46;100060.50;5030165;28;20041;-35
2023/06/10 04:26:05;;;;;;;5.72;1.10;;;;;;;13.34;54.33;100066.28;5027835;28;20037;-35
2023/06/10 04:28:32;;;;;;;4.70;1.20;;;;;;;13.38;53.74;100062.63;5022985;28;20080;-36
2023/06/10 04:30:59;;;;;;;1.75;1.08;;;;;;;13.28;53.34;100043.00;4995166;28;20045;-34
2023/06/10 04:33:24;;;;;;;2.03;1.20;;;;;;;13.46;53.00;100060.56;4991532;28;20050;-35
2023/06/10 04:35:50;;;;;;;4.32;1.45;;;;;;;13.50;52.73;100069.13;5012964;28;20048;-35
2023/06/10 04:38:18;;;;;;;2.75;1.30;;;;;;;13.57;52.50;100067.97;5007867;28;20095;-35
2023/06/10 04:40:44;;;;;;;2.38;1.20;;;;;;;13.63;52.66;100070.31;5007997;28;20522;-34
2023/06/10 04:43:13;;;;;;;5.13;1.40;;;;;;;13.67;52.95;100073.66;5021963;28;20059;-36
2023/06/10 04:45:39;;;;;;;4.95;1.45;;;;;;;13.72;53.12;100069.09;5044455;28;20517;-34
2023/06/10 04:48:07;;;;;;;6.20;1.10;;;;;;;13.79;53.27;100075.78;5020030;28;20505;-35
2023/06/10 04:50:33;;;;;;;3.80;1.30;;;;;;;13.88;53.21;100083.22;5015544;28;20071;-34
2023/06/10 04:52:59;;;;;;;5.30;1.45;;;;;;;13.93;52.48;100082.13;5028002;28;20068;-34
2023/06/10 04:55:25;;;;;;;4.93;1.20;;;;;;;13.98;51.98;100087.16;5006260;28;20034;-34
2023/06/10 04:57:51;;;;;;;2.72;1.40;;;;;;;13.91;51.76;100052.59;5024525;28;20049;-35
2023/06/10 05:00:17;;;;;;;3.88;1.20;;;;;;;14.10;51.52;100089.28;5027486;28;20037;-33
2023/06/10 05:02:44;;;;;;;1.85;1.35;;;;;;;14.15;51.28;100086.47;5026516;28;20045;-36
2023/06/10 05:05:10;;;;;;;3.28;1.40;;;;;;;14.08;51.35;100064.94;5028460;28;20124;-35
2023/06/10 05:07:37;;;;;;;5.38;1.73;;;;;;;14.26;51.39;100094.69;5028085;28;20473;-34
2023/06/10 05:10:03;;;;;;;6.18;1.83;;;;;;;14.03;51.10;100042.56;5028237;28;20509;-35
2023/06/10 05:12:29;;;;;;;6.57;2.15;;;;;;;14.38;51.15;100089.84;5026327;28;20033;-36
2023/06/10 05:14:55;;;;;;;8.30;1.42;;;;;;;14.44;51.02;100099.19;5027979;28;20045;-34
2023/06/10 05:17:21;;;;;;;3.08;1.20;;;;;;;14.52;50.63;100106.69;5026545;28;20060;-34
2023/06/10 05:19:47;;;;;;;2.00;1.30;;;;;;;14.56;50.19;100103.00;5010464;28;20076;-34
2023/06/10 05:22:16;;;;;;;3.28;1.00;;;;;;;14.43;49.76;100062.63;5026402;28;20621;-35
2023/06/10 05:24:43;;;;;;;2.45;1.20;;;;;;;14.66;49.62;100097.31;5028416;28;20041;-34
2023/06/10 05:27:09;;;;;;;3.03;1.42;;;;;;;14.77;49.61;100100.28;5016894;28;20087;-35
2023/06/10 05:29:35;;;;;;;7.93;4.43;;;;;;;14.69;49.39;100078.00;5026918;28;20159;-34
2023/06/10 05:32:03;;;;;;;2.60;1.50;;;;;;;14.93;49.23;100103.06;5002360;28;20069;-35
2023/06/10 05:34:32;;;;;;;4.47;1.60;;;;;;;15.04;49.28;100103.44;5006987;28;20491;-35
2023/06/10 05:36:57;;;;;;;2.88;1.40;;;;;;;15.14;49.38;100112.56;5027181;28;20033;-35
2023/06/10 05:39:23;;;;;;;3.45;1.52;;;;;;;15.24;49.04;100112.97;5027689;28;20033;-35
2023/06/10 05:41:49;;;;;;;8.45;1.30;;;;;;;15.31;49.36;100106.56;5025408;28;20053;-34
2023/06/10 05:44:15;;;;;;;2.55;1.10;;;;;;;15.43;48.94;100113.00;5020653;28;20119;-35
2023/06/10 05:46:41;;;;;;;3.28;1.35;;;;;;;15.42;49.02;100109.50;5025262;28;20041;-35
2023/06/10 05:49:07;;;;;;;3.13;1.30;;;;;;;15.62;48.60;100106.81;5027344;28;20037;-35
2023/06/10 05:51:32;;;;;;;1.77;1.10;;;;;;;15.76;48.19;100116.63;5027595;28;20052;-35
2023/06/10 05:53:58;;;;;;;1.92;1.10;;;;;;;15.79;48.30;100123.50;5027298;28;20040;-35
2023/06/10 05:56:25;;;;;;;3.22;1.13;;;;;;;15.90;48.23;100122.06;5027521;28;20042;-35
2023/06/10 05:58:51;;;;;;;2.33;1.10;;;;;;;16.04;47.74;100121.38;5027348;28;20044;-36
2023/06/10 06:01:17;;;;;;;5.57;1.30;;;;;;;16.27;47.19;100130.72;5020620;28;20068;-35
2023/06/10 06:03:43;;;;;;;5.30;1.40;;;;;;;16.46;46.87;100120.97;5008209;28;20192;-33
2023/06/10 06:06:08;;;;;;;9.25;1.48;;;;;;;16.50;46.53;100096.25;5021779;28;20045;-34
2023/06/10 06:08:34;;;;;;;1.85;1.10;;;;;;;16.62;46.19;100121.06;5009103;28;20532;-35
2023/06/10 06:11:00;;;;;;;3.03;1.10;;;;;;;16.71;45.72;100115.31;5026717;28;20041;-35
2023/06/10 06:13:26;;;;;;;3.13;1.13;;;;;;;16.79;45.39;100118.41;5027323;28;20131;-34
2023/06/10 06:15:52;;;;;;;3.85;1.17;;;;;;;16.90;45.02;100111.63;5008397;28;20512;-34
2023/06/10 06:18:18;;;;;;;4.85;0.90;;;;;;;17.07;44.84;100120.41;5023623;28;20047;-34
2023/06/10 06:20:44;;;;;;;4.65;1.02;;;;;;;17.17;44.79;100105.81;5026626;28;20429;-35
2023/06/10 06:23:10;;;;;;;1.50;1.00;;;;;;;17.54;44.91;100123.88;5025838;28;20081;-35
2023/06/10 06:25:38;;;;;;;2.83;1.20;;;;;;;17.68;44.17;100112.66;5016425;28;20072;-35
2023/06/10 06:28:10;;;;;;;1.65;1.02;;;;;;;18.18;43.45;100125.50;5014772;28;20126;-36
2023/06/10 06:30:36;;;;;;;1.88;1.08;;;;;;;18.69;42.98;100128.63;5026118;28;20517;-35
2023/06/10 06:33:02;;;;;;;2.92;1.15;;;;;;;18.81;41.99;100097.13;5026705;28;20076;-35
2023/06/10 06:35:32;;;;;;;1.23;0.90;;;;;;;19.00;41.65;100126.66;5026864;28;20133;-34
2023/06/10 06:37:58;;;;;;;3.80;1.20;;;;;;;18.83;41.55;100124.25;5026499;28;20132;-38
2023/06/10 06:40:28;;;;;;;6.97;1.00;;;;;;;18.64;41.67;100128.91;5028203;28;20056;-34
2023/06/10 06:42:54;;;;;;;2.58;0.90;;;;;;;18.39;41.94;100126.03;5030194;28;20131;-35
2023/06/10 06:45:36;;;;;;;3.38;1.38;;;;;;;18.27;41.82;100126.75;4997419;28;20080;-35
2023/06/10 06:48:02;;;;;;;4.22;1.30;;;;;;;18.31;41.81;100134.41;5013131;28;20072;-35
2023/06/10 06:50:28;;;;;;;2.70;0.80;;;;;;;18.33;41.62;100143.03;5031515;28;20791;-35
2023/06/10 06:52:54;;;;;;;3.55;1.30;;;;;;;18.15;41.98;100133.59;5031053;28;20043;-34
2023/06/10 06:55:20;;;;;;;5.65;0.90;;;;;;;18.40;41.40;100125.09;5031243;28;20429;-36
2023/06/10 06:57:46;;;;;;;1.98;1.02;;;;;;;18.62;41.18;100149.25;5039877;28;20108;-35
2023/06/10 07:00:12;;;;;;;2.90;1.00;;;;;;;18.36;41.31;100126.22;5027457;28;20057;-34
2023/06/10 07:02:38;;;;;;;3.38;2.75;;;;;;;18.90;40.74;100148.41;5029279;28;20119;-35
2023/06/10 07:05:05;;;;;;;3.05;1.17;;;;;;;19.55;39.32;100125.88;5029439;28;20146;-35
2023/06/10 07:07:31;;;;;;;4.78;1.60;;;;;;;20.81;37.55;100127.97;5029102;28;20044;-34
2023/06/10 07:09:56;;;;;;;3.15;1.27;;;;;;;23.42;34.42;100155.19;5030098;28;20037;-36
2023/06/10 07:12:23;;;;;;;5.82;1.65;;;;;;;25.54;32.02;100154.94;5012140;28;20049;-36
2023/06/10 07:14:50;;;;;;;4.20;2.28;;;;;;;27.24;29.44;100155.13;5017603;28;20048;-36
2023/06/10 07:17:17;;;;;;;6.07;2.00;;;;;;;28.60;27.35;100162.03;5007250;28;20037;-36
2023/06/10 07:19:44;;;;;;;8.18;2.05;;;;;;;29.74;25.96;100161.66;5019056;28;20136;-36
2023/06/10 07:22:10;;;;;;;2.45;1.90;;;;;;;30.93;24.64;100160.19;5011575;28;20478;-36
2023/06/10 07:24:36;;;;;;;4.45;1.20;;;;;;;32.01;22.95;100166.63;5015844;28;20132;-37
2023/06/10 07:27:01;;;;;;;4.85;1.20;;;;;;;32.85;21.56;100178.25;5012342;28;20038;-36
2023/06/10 07:29:27;;;;;;;2.90;0.88;;;;;;;32.72;21.67;100171.63;5033872;28;20069;-36
2023/06/10 07:31:53;;;;;;;2.83;0.80;;;;;;;30.45;22.60;100166.47;5011092;28;20784;-36
2023/06/10 07:34:19;;;;;;;5.53;1.08;;;;;;;29.19;23.81;100173.81;5030110;28;20033;-36
2023/06/10 07:36:45;;;;;;;3.17;1.13;;;;;;;27.93;24.73;100163.44;5027833;28;20057;-38
2023/06/10 07:39:11;;;;;;;2.15;0.98;;;;;;;26.84;25.33;100163.38;5008932;28;20096;-36
2023/06/10 07:41:37;;;;;;;3.45;0.93;;;;;;;25.43;26.58;100168.34;5031273;28;20049;-35
2023/06/10 07:44:03;;;;;;;3.60;1.20;;;;;;;24.33;28.06;100164.50;5030049;28;20072;-35
2023/06/10 07:46:29;;;;;;;1.50;0.93;;;;;;;23.51;28.99;100165.94;5028644;28;20048;-35
2023/06/10 07:48:55;;;;;;;1.77;0.80;;;;;;;24.03;28.63;100167.00;5028583;28;20121;-35
2023/06/10 07:51:21;;;;;;;4.80;1.00;;;;;;;26.73;26.17;100167.06;5028864;28;20041;-35
2023/06/10 07:53:47;;;;;;;4.10;1.05;;;;;;;28.99;23.84;100170.53;5029922;28;20155;-35
2023/06/10 07:56:13;;;;;;;3.25;0.98;;;;;;;30.47;22.30;100155.56;5028235;28;20369;-36
2023/06/10 07:58:39;;;;;;;2.95;1.38;;;;;;;31.40;21.77;100176.38;5028687;28;20045;-35
2023/06/10 08:01:04;;;;;;;9.60;1.10;;;;;;;32.88;20.20;100191.34;5025232;28;20571;-35
2023/06/10 08:03:30;;;;;;;5.28;1.60;;;;;;;34.02;19.08;100172.78;5028331;28;20052;-36
2023/06/10 08:05:57;;;;;;;4.10;1.13;;;;;;;34.37;18.37;100179.16;5009992;28;20044;-36
2023/06/10 08:08:22;;;;;;;7.80;1.40;;;;;;;34.79;18.00;100191.78;5028676;28;20041;-36
2023/06/10 08:10:49;;;;;;;4.40;1.20;;;;;;;32.88;18.73;100191.34;5028218;28;20057;-36
2023/06/10 08:13:16;;;;;;;3.35;2.10;;;;;;;31.06;19.73;100163.22;5027303;28;20042;-36
2023/06/10 08:15:42;;;;;;;3.40;0.95;;;;;;;29.45;20.73;100191.56;5024368;28;20041;-36
2023/06/10 08:18:08;;;;;;;1.27;0.77;;;;;;;28.86;20.99;100181.66;5029417;28;20037;-35
2023/06/10 08:20:33;;;;;;;3.53;1.90;;;;;;;29.00;21.17;100185.59;5029526;28;20072;-36
2023/06/10 08:23:00;;;;;;;3.58;1.02;;;;;;;31.16;19.60;100195.25;5027836;28;20042;-37
2023/06/10 08:25:26;;;;;;;4.13;1.15;;;;;;;30.58;19.93;100196.34;5027692;28;20128;-36
2023/06/10 08:27:52;;;;;;;7.15;4.22;;;;;;;29.06;20.88;100187.63;5028243;28;20570;-35
2023/06/10 08:30:18;;;;;;;3.25;2.22;;;;;;;27.50;21.97;100172.16;5027284;28;20651;-37
2023/06/10 08:32:44;;;;;;;1.92;0.60;;;;;;;26.45;23.36;100205.28;5028428;28;20125;-36
2023/06/10 08:35:10;;;;;;;4.68;1.20;;;;;;;25.39;24.18;100186.41;5026996;28;20132;-34
2023/06/10 08:37:36;;;;;;;8.95;3.17;;;;;;;26.58;23.22;100203.19;5027470;28;20160;-34
2023/06/10 08:40:02;;;;;;;4.82;1.20;;;;;;;29.58;21.02;100212.53;5042658;28;20067;-36
2023/06/10 08:42:40;;;;;;;4.55;3.00;;;;;;;31.80;18.83;100214.84;5025114;28;20575;-35
2023/06/10 08:45:07;;;;;;;3.78;1.55;;;;;;;33.25;17.54;100204.78;5039566;28;20032;-35
2023/06/10 08:47:36;;;;;;;3.13;1.60;;;;;;;31.66;18.21;100216.44;5026116;28;20041;-35
2023/06/10 08:50:04;;;;;;;11.50;7.53;;;;;;;29.51;19.74;100216.88;5013608;28;20140;-35
2023/06/10 08:52:37;;;;;;;2.78;1.33;;;;;;;27.94;20.60;100209.75;5019917;28;20041;-36
2023/06/10 08:55:09;;;;;;;10.93;8.82;;;;;;;26.83;21.69;100213.25;5033625;28;20037;-37
2023/06/10 08:57:36;;;;;;;1.40;0.73;;;;;;;25.88;22.86;100203.38;4993262;28;20064;-37
2023/06/10 09:00:03;;;;;;;2.30;1.40;;;;;;;27.69;22.14;100208.59;5011023;28;20051;-35
2023/06/10 09:02:30;;;;;;;8.03;2.90;;;;;;;29.78;20.39;100205.88;5027638;28;20045;-36
2023/06/10 09:04:57;;;;;;;3.08;1.52;;;;;;;29.43;20.78;100224.84;5034844;28;20505;-35
2023/06/10 09:07:23;;;;;;;3.78;1.27;;;;;;;28.16;21.89;100211.97;5026008;28;20048;-35
2023/06/10 09:09:53;;;;;;;3.40;0.80;;;;;;;26.98;22.42;100189.63;5017224;28;20049;-36
2023/06/10 09:12:19;;;;;;;;;;;;;;;26.13;22.92;100209.03;5027402;28;20041;-36
2023/06/10 09:14:45;;;;;;;1.35;0.80;;;;;;;25.30;23.87;100220.00;5021419;28;19966;-36
2023/06/10 09:17:11;;;;;;;5.78;1.20;;;;;;;24.62;24.64;100215.22;5022970;28;20060;-37
2023/06/10 09:19:38;;;;;;;5.38;3.25;;;;;;;24.07;24.92;100219.75;5024894;28;20061;-36
2023/06/10 09:22:04;;;;;;;1.30;0.90;;;;;;;23.84;25.48;100218.16;5026974;28;20043;-36
2023/06/10 09:24:30;;;;;;;3.92;0.98;;;;;;;24.00;25.46;100209.78;5021194;28;20146;-37
2023/06/10 09:27:06;;;;;;;1.40;0.93;;;;;;;24.68;25.19;100209.41;5007081;28;20041;-38
2023/06/10 09:29:45;;;;;;;8.07;0.90;;;;;;;27.74;22.50;100203.69;5024069;28;20204;-36
2023/06/10 09:32:10;;;;;;;2.53;1.20;;;;;;;30.86;20.04;100212.09;5025736;28;20047;-37
2023/06/10 09:34:36;;;;;;;0.90;0.77;;;;;;;31.52;18.95;100192.94;5024479;28;20037;-36
2023/06/10 09:37:02;;;;;;;1.77;0.70;;;;;;;30.03;19.39;100212.22;5020613;28;20049;-35
2023/06/10 09:39:28;;;;;;;3.80;1.10;;;;;;;29.48;19.90;100223.38;5025474;28;20045;-36
2023/06/10 09:41:54;;;;;;;1.63;1.08;;;;;;;30.82;18.68;100225.03;5016722;28;20564;-36
2023/06/10 09:44:21;;;;;;;2.88;1.10;;;;;;;30.79;18.47;100227.19;5016545;28;20175;-37
2023/06/10 09:46:50;;;;;;;1.75;1.48;;;;;;;29.82;18.60;100233.22;4998943;28;20037;-37
2023/06/10 09:49:16;;;;;;;3.72;1.67;;;;;;;28.99;19.05;100224.94;5023632;28;20052;-36
2023/06/10 09:51:53;;;;;;;4.45;1.65;;;;;;;28.60;19.24;100221.75;5024097;28;20046;-36
2023/06/10 09:54:19;;;;;;;5.18;1.88;;;;;;;28.14;19.40;100197.94;5020351;28;20041;-36
2023/06/10 09:56:50;;;;;;;7.07;3.25;;;;;;;27.91;20.07;100207.34;5024353;28;20049;-36
2023/06/10 09:59:16;;;;;;;6.72;3.80;;;;;;;30.55;18.70;100220.84;5019169;28;20580;-36
2023/06/10 10:01:42;;;;;;;7.80;4.15;;;;;;;31.98;17.96;100220.78;5019562;28;20144;-37
2023/06/10 10:04:08;;;;;;;4.75;1.00;;;;;;;30.33;18.65;100234.03;5023397;28;20132;-36
2023/06/10 10:06:34;;;;;;;5.45;1.20;;;;;;;28.67;19.97;100230.00;5023321;28;20152;-35
2023/06/10 10:09:00;;;;;;;4.80;1.05;;;;;;;27.45;21.20;100219.81;5014080;28;20517;-37
2023/06/10 10:11:26;;;;;;;2.45;0.80;;;;;;;26.60;21.68;100230.53;5027596;28;20067;-36
2023/06/10 10:13:53;;;;;;;1.88;0.50;;;;;;;25.96;21.85;100233.69;5030742;28;20040;-36
2023/06/10 10:16:43;;;;;;;2.90;0.70;;;;;;;26.00;21.44;100215.63;5024433;28;20049;-37
2023/06/10 10:19:16;;;;;;;1.92;0.73;;;;;;;26.49;20.85;100206.69;5023624;28;20100;-36
2023/06/10 10:21:50;;;;;;;1.52;0.55;;;;;;;26.26;21.58;100230.13;5024232;28;20060;-35
2023/06/10 10:24:18;;;;;;;6.68;1.40;;;;;;;26.05;21.87;100224.88;5035544;28;20034;-36
2023/06/10 10:26:47;;;;;;;2.50;1.00;;;;;;;27.47;21.25;100233.03;5022308;28;20077;-37
2023/06/10 10:29:28;;;;;;;1.17;0.93;;;;;;;28.78;20.19;100229.81;5024580;28;20049;-35
2023/06/10 10:31:56;;;;;;;1.83;0.82;;;;;;;29.28;18.99;100203.16;5039095;28;20041;-34
2023/06/10 10:34:28;;;;;;;1.23;0.82;;;;;;;28.14;20.10;100219.34;5020625;28;20123;-36
2023/06/10 10:36:54;;;;;;;2.50;0.80;;;;;;;27.08;21.19;100216.28;5041546;28;20053;-35
2023/06/10 10:39:20;;;;;;;2.65;1.20;;;;;;;26.40;20.98;100224.38;5027841;28;20045;-36
2023/06/10 10:41:47;;;;;;;3.92;0.80;;;;;;;26.10;21.13;100219.97;5030527;28;20048;-35
2023/06/10 10:44:13;;;;;;;3.00;0.90;;;;;;;25.88;21.60;100219.38;5012938;28;20045;-36
2023/06/10 10:46:49;;;;;;;4.32;0.70;;;;;;;25.71;22.12;100213.72;5030447;28;20033;-35
2023/06/10 10:49:16;;;;;;;1.52;1.00;;;;;;;25.50;22.05;100194.28;5026595;28;20417;-35
2023/06/10 10:51:57;;;;;;;2.72;1.05;;;;;;;27.78;20.48;100211.25;5028671;28;20394;-36
2023/06/10 10:54:31;;;;;;;1.98;1.02;;;;;;;30.65;18.54;100217.97;5030503;28;20072;-35
2023/06/10 10:57:09;;;;;;;2.10;1.20;;;;;;;32.91;17.13;100218.78;5009767;28;20049;-36
2023/06/10 10:59:55;;;;;;;7.00;1.90;;;;;;;34.48;15.79;100212.91;5023276;28;20065;-36
2023/06/10 11:02:42;;;;;;;6.13;0.80;;;;;;;33.03;16.16;100228.06;5020381;28;20370;-36
2023/06/10 11:05:10;;;;;;;1.90;0.70;;;;;;;30.97;17.33;100230.53;5027605;28;20046;-37
2023/06/10 11:07:36;;;;;;;3.80;1.10;;;;;;;29.29;18.06;100231.63;5020752;28;20506;-34
2023/06/10 11:10:02;;;;;;;6.20;1.25;;;;;;;30.28;17.65;100226.50;5021630;28;20041;-36
2023/06/10 11:12:49;;;;;;;1.65;1.00;;;;;;;32.86;15.66;100229.28;5029027;28;20041;-36
2023/06/10 11:15:38;;;;;;;2.38;1.25;;;;;;;34.73;14.94;100225.00;5029563;28;20044;-35
2023/06/10 11:18:14;;;;;;;4.35;1.00;;;;;;;34.30;15.12;100225.00;5017367;28;20064;-35
2023/06/10 11:20:49;;;;;;;6.75;0.73;;;;;;;31.93;16.31;100234.78;5012704;28;20041;-36
2023/06/10 11:23:27;;;;;;;1.70;0.70;;;;;;;29.90;17.57;100225.22;5029344;28;20505;-36
2023/06/10 11:26:33;;;;;;;2.78;1.00;;;;;;;28.50;18.90;100231.72;5028580;28;20489;-36
2023/06/10 11:28:59;;;;;;;4.90;0.95;;;;;;;28.93;18.73;100235.44;5025857;28;20124;-36
2023/06/10 11:31:42;;;;;;;6.80;0.98;;;;;;;28.73;19.00;100225.91;5027944;28;20770;-37